sensor_id;sensor_type;location;lat;lon;timestamp;pressure;altitude;pressure_sealevel;temperature;humidity
26112;BME280;13829;48.990;8.346;2024-03-23T00:52:36;99687.63;;;12.69;100.00
26112;BME280;13829;48.990;8.346;2024-03-23T00:55:04;99692.00;;;12.73;100.00
26112;BME280;13829;48.990;8.346;2024-03-23T00:57:29;99684.97;;;12.70;100.00
26112;BME280;13829;48.990;8.346;2024-03-23T00:59:56;99669.28;;;12.64;100.00
26112;BME280;13829;48.990;8.346;2024-03-23T01:02:22;99652.63;;;12.57;100.00
26112;BME280;13829;48.990;8.346;2024-03-23T01:04:49;99643.44;;;12.85;98.24
26112;BME280;13829;48.990;8.346;2024-03-23T01:07:15;99649.09;;;12.60;97.73
26112;BME280;13829;48.990;8.346;2024-03-23T01:09:43;99649.28;;;12.46;98.69
26112;BME280;13829;48.990;8.346;2024-03-23T01:12:09;99656.47;;;12.38;99.28
26112;BME280;13829;48.990;8.346;2024-03-23T01:14:36;99655.75;;;12.27;100.00
26112;BME280;13829;48.990;8.346;2024-03-23T01:17:03;99640.81;;;12.26;100.00
26112;BME280;13829;48.990;8.346;2024-03-23T01:19:30;99652.19;;;12.29;100.00
26112;BME280;13829;48.990;8.346;2024-03-23T01:21:56;99643.50;;;12.21;100.00
26112;BME280;13829;48.990;8.346;2024-03-23T01:24:23;99643.41;;;12.27;100.00
26112;BME280;13829;48.990;8.346;2024-03-23T01:26:50;99643.41;;;12.27;100.00
26112;BME280;13829;48.990;8.346;2024-03-23T01:29:17;99636.91;;;12.51;99.86
26112;BME280;13829;48.990;8.346;2024-03-23T01:31:43;99643.06;;;12.52;99.46
26112;BME280;13829;48.990;8.346;2024-03-23T01:34:11;99637.72;;;12.58;99.91
26112;BME280;13829;48.990;8.346;2024-03-23T01:36:37;99630.63;;;12.62;99.53
26112;BME280;13829;48.990;8.346;2024-03-23T01:39:04;99629.75;;;12.60;99.16
26112;BME280;13829;48.990;8.346;2024-03-23T01:41:30;99624.28;;;12.72;98.66
26112;BME280;13829;48.990;8.346;2024-03-23T01:44:05;99620.63;;;12.81;97.56
26112;BME280;13829;48.990;8.346;2024-03-23T01:46:31;99616.16;;;12.84;97.05
26112;BME280;13829;48.990;8.346;2024-03-23T01:48:59;99623.28;;;12.79;97.38
26112;BME280;13829;48.990;8.346;2024-03-23T01:51:26;99618.00;;;12.81;97.59
26112;BME280;13829;48.990;8.346;2024-03-23T01:53:54;99622.19;;;12.93;97.57
26112;BME280;13829;48.990;8.346;2024-03-23T01:56:22;99613.28;;;12.98;97.30
26112;BME280;13829;48.990;8.346;2024-03-23T01:58:49;99603.66;;;12.94;97.72
26112;BME280;13829;48.990;8.346;2024-03-23T02:01:17;99603.78;;;12.89;97.51
26112;BME280;13829;48.990;8.346;2024-03-23T02:03:45;99601.13;;;12.89;98.06
26112;BME280;13829;48.990;8.346;2024-03-23T02:06:11;99596.44;;;13.05;94.99
26112;BME280;13829;48.990;8.346;2024-03-23T02:08:38;99594.69;;;13.06;94.05
26112;BME280;13829;48.990;8.346;2024-03-23T02:11:04;99598.88;;;13.16;94.12
26112;BME280;13829;48.990;8.346;2024-03-23T02:13:31;99593.31;;;13.32;94.07
26112;BME280;13829;48.990;8.346;2024-03-23T02:15:57;99600.19;;;13.42;92.50
26112;BME280;13829;48.990;8.346;2024-03-23T02:18:26;99607.22;;;13.43;91.76
26112;BME280;13829;48.990;8.346;2024-03-23T02:20:52;99601.75;;;13.52;91.94
26112;BME280;13829;48.990;8.346;2024-03-23T02:23:20;99597.34;;;13.53;91.42
26112;BME280;13829;48.990;8.346;2024-03-23T02:25:46;99583.38;;;13.46;92.00
26112;BME280;13829;48.990;8.346;2024-03-23T02:28:13;99582.47;;;13.47;92.79
26112;BME280;13829;48.990;8.346;2024-03-23T02:30:39;99584.41;;;13.39;92.27
26112;BME280;13829;48.990;8.346;2024-03-23T02:33:06;99583.38;;;13.46;92.15
26112;BME280;13829;48.990;8.346;2024-03-23T02:35:32;99582.59;;;13.41;92.76
26112;BME280;13829;48.990;8.346;2024-03-23T02:37:59;99581.81;;;13.34;93.00
26112;BME280;13829;48.990;8.346;2024-03-23T02:40:28;99575.56;;;13.40;92.04
26112;BME280;13829;48.990;8.346;2024-03-23T02:42:55;99574.78;;;13.33;93.36
26112;BME280;13829;48.990;8.346;2024-03-23T02:45:21;99576.44;;;13.41;93.15
26112;BME280;13829;48.990;8.346;2024-03-23T02:47:48;99580.09;;;13.32;93.38
26112;BME280;13829;48.990;8.346;2024-03-23T02:50:18;99584.22;;;13.48;93.32
26112;BME280;13829;48.990;8.346;2024-03-23T02:52:45;99590.34;;;13.50;93.02
26112;BME280;13829;48.990;8.346;2024-03-23T02:55:10;99585.28;;;13.40;93.34
26112;BME280;13829;48.990;8.346;2024-03-23T02:57:39;99583.56;;;13.35;93.37
26112;BME280;13829;48.990;8.346;2024-03-23T03:00:06;99591.75;;;13.21;93.83
26112;BME280;13829;48.990;8.346;2024-03-23T03:02:34;99572.50;;;13.16;95.46
26112;BME280;13829;48.990;8.346;2024-03-23T03:05:00;99572.53;;;13.13;95.94
26112;BME280;13829;48.990;8.346;2024-03-23T03:07:27;99574.50;;;13.03;95.95
26112;BME280;13829;48.990;8.346;2024-03-23T03:09:53;99571.72;;;13.10;96.12
26112;BME280;13829;48.990;8.346;2024-03-23T03:12:20;99573.41;;;13.14;95.94
26112;BME280;13829;48.990;8.346;2024-03-23T03:14:47;99583.09;;;13.13;94.83
26112;BME280;13829;48.990;8.346;2024-03-23T03:17:14;99574.91;;;13.29;94.37
26112;BME280;13829;48.990;8.346;2024-03-23T03:19:40;99582.75;;;13.32;93.78
26112;BME280;13829;48.990;8.346;2024-03-23T03:22:07;99579.00;;;13.45;93.07
26112;BME280;13829;48.990;8.346;2024-03-23T03:24:33;99579.88;;;13.46;91.60
26112;BME280;13829;48.990;8.346;2024-03-23T03:27:00;99573.56;;;13.51;91.56
26112;BME280;13829;48.990;8.346;2024-03-23T03:29:26;99562.75;;;13.64;88.54
26112;BME280;13829;48.990;8.346;2024-03-23T03:32:02;99558.25;;;13.69;87.27
26112;BME280;13829;48.990;8.346;2024-03-23T03:34:28;99555.59;;;13.69;87.52
26112;BME280;13829;48.990;8.346;2024-03-23T03:36:55;99544.50;;;13.53;86.99
26112;BME280;13829;48.990;8.346;2024-03-23T03:39:21;99557.47;;;13.64;86.83
26112;BME280;13829;48.990;8.346;2024-03-23T03:41:49;99556.66;;;13.62;86.99
26112;BME280;13829;48.990;8.346;2024-03-23T03:44:15;99569.72;;;13.68;87.78
26112;BME280;13829;48.990;8.346;2024-03-23T03:46:42;99571.75;;;13.57;87.82
26112;BME280;13829;48.990;8.346;2024-03-23T03:49:10;99564.72;;;13.56;88.63
26112;BME280;13829;48.990;8.346;2024-03-23T03:51:37;99563.78;;;13.58;88.44
26112;BME280;13829;48.990;8.346;2024-03-23T03:54:03;99561.47;;;13.41;89.06
26112;BME280;13829;48.990;8.346;2024-03-23T03:56:30;99558.00;;;13.39;90.07
26112;BME280;13829;48.990;8.346;2024-03-23T03:58:56;99559.97;;;13.26;89.85
26112;BME280;13829;48.990;8.346;2024-03-23T04:01:22;99558.13;;;13.30;89.48
26112;BME280;13829;48.990;8.346;2024-03-23T04:03:48;99558.22;;;13.27;88.73
26112;BME280;13829;48.990;8.346;2024-03-23T04:06:20;99563.50;;;13.27;88.49
26112;BME280;13829;48.990;8.346;2024-03-23T04:08:46;99555.66;;;13.22;87.97
26112;BME280;13829;48.990;8.346;2024-03-23T04:11:13;99568.78;;;13.27;88.21
26112;BME280;13829;48.990;8.346;2024-03-23T04:13:39;99560.84;;;13.27;88.51
26112;BME280;13829;48.990;8.346;2024-03-23T04:16:07;99558.00;;;13.37;88.44
26112;BME280;13829;48.990;8.346;2024-03-23T04:18:33;99563.38;;;13.33;88.69
26112;BME280;13829;48.990;8.346;2024-03-23T04:21:00;99558.91;;;13.36;89.11
26112;BME280;13829;48.990;8.346;2024-03-23T04:23:28;99552.97;;;13.24;88.37
26112;BME280;13829;48.990;8.346;2024-03-23T04:25:54;99567.22;;;13.16;88.70
26112;BME280;13829;48.990;8.346;2024-03-23T04:28:21;99575.28;;;13.07;89.06
26112;BME280;13829;48.990;8.346;2024-03-23T04:30:47;99570.97;;;13.03;89.92
26112;BME280;13829;48.990;8.346;2024-03-23T04:33:14;99579.84;;;12.99;89.85
26112;BME280;13829;48.990;8.346;2024-03-23T04:35:40;99584.28;;;12.97;90.98
26112;BME280;13829;48.990;8.346;2024-03-23T04:38:07;99589.59;;;12.95;89.77
26112;BME280;13829;48.990;8.346;2024-03-23T04:40:35;99591.53;;;12.84;90.45
26112;BME280;13829;48.990;8.346;2024-03-23T04:43:03;99574.84;;;12.83;90.09
26112;BME280;13829;48.990;8.346;2024-03-23T04:45:30;99580.38;;;12.69;90.00
26112;BME280;13829;48.990;8.346;2024-03-23T04:47:57;99580.38;;;12.68;90.73
26112;BME280;13829;48.990;8.346;2024-03-23T04:50:24;99574.97;;;12.77;91.38
26112;BME280;13829;48.990;8.346;2024-03-23T04:52:51;99573.41;;;12.64;91.88
26112;BME280;13829;48.990;8.346;2024-03-23T04:55:18;99580.59;;;12.55;93.13
26112;BME280;13829;48.990;8.346;2024-03-23T04:57:46;99591.22;;;12.51;92.69
26112;BME280;13829;48.990;8.346;2024-03-23T05:00:13;99584.16;;;12.53;92.99
26112;BME280;13829;48.990;8.346;2024-03-23T05:02:44;99594.72;;;12.51;93.19
26112;BME280;13829;48.990;8.346;2024-03-23T05:05:12;99587.75;;;12.47;91.97
26112;BME280;13829;48.990;8.346;2024-03-23T05:07:38;99589.50;;;12.48;92.09
26112;BME280;13829;48.990;8.346;2024-03-23T05:10:06;99607.16;;;12.43;90.29
26112;BME280;13829;48.990;8.346;2024-03-23T05:12:35;99621.38;;;12.33;88.14
26112;BME280;13829;48.990;8.346;2024-03-23T05:15:05;99630.25;;;12.26;84.22
26112;BME280;13829;48.990;8.346;2024-03-23T05:17:31;99639.13;;;12.21;84.10
26112;BME280;13829;48.990;8.346;2024-03-23T05:19:58;99636.44;;;12.24;83.32
26112;BME280;13829;48.990;8.346;2024-03-23T05:22:24;99646.19;;;12.18;82.42
26112;BME280;13829;48.990;8.346;2024-03-23T05:24:52;99653.31;;;12.11;81.83
26112;BME280;13829;48.990;8.346;2024-03-23T05:27:18;99636.78;;;12.00;82.80
26112;BME280;13829;48.990;8.346;2024-03-23T05:29:45;99642.81;;;12.08;82.62
26112;BME280;13829;48.990;8.346;2024-03-23T05:32:14;99661.22;;;12.11;80.49
26112;BME280;13829;48.990;8.346;2024-03-23T05:34:41;99665.63;;;12.09;81.53
26112;BME280;13829;48.990;8.346;2024-03-23T05:37:07;99687.59;;;12.11;83.35
26112;BME280;13829;48.990;8.346;2024-03-23T05:39:34;99685.03;;;12.02;84.24
26112;BME280;13829;48.990;8.346;2024-03-23T05:42:00;99681.59;;;11.97;84.96
26112;BME280;13829;48.990;8.346;2024-03-23T05:44:26;99683.34;;;11.98;84.46
26112;BME280;13829;48.990;8.346;2024-03-23T05:46:52;99694.94;;;11.81;85.15
26112;BME280;13829;48.990;8.346;2024-03-23T05:49:21;99718.72;;;11.73;85.65
26112;BME280;13829;48.990;8.346;2024-03-23T05:51:47;99718.75;;;11.72;85.10
26112;BME280;13829;48.990;8.346;2024-03-23T05:54:13;99725.78;;;11.73;85.40
26112;BME280;13829;48.990;8.346;2024-03-23T05:56:40;99729.34;;;11.66;86.33
26112;BME280;13829;48.990;8.346;2024-03-23T05:59:07;99729.31;;;11.69;85.17
26112;BME280;13829;48.990;8.346;2024-03-23T06:01:33;99726.84;;;11.53;86.54
26112;BME280;13829;48.990;8.346;2024-03-23T06:04:00;99717.31;;;11.41;85.60
26112;BME280;13829;48.990;8.346;2024-03-23T06:06:28;99734.00;;;11.36;85.94
26112;BME280;13829;48.990;8.346;2024-03-23T06:08:56;99754.22;;;11.34;85.03
26112;BME280;13829;48.990;8.346;2024-03-23T06:11:22;99762.16;;;11.26;84.48
26112;BME280;13829;48.990;8.346;2024-03-23T06:13:49;99769.13;;;11.36;85.55
26112;BME280;13829;48.990;8.346;2024-03-23T06:16:16;99766.47;;;11.38;85.75
26112;BME280;13829;48.990;8.346;2024-03-23T06:18:45;99780.56;;;11.31;84.26
26112;BME280;13829;48.990;8.346;2024-03-23T06:21:14;99799.88;;;11.30;85.23
26112;BME280;13829;48.990;8.346;2024-03-23T06:23:42;99798.16;;;11.29;85.61
26112;BME280;13829;48.990;8.346;2024-03-23T06:26:08;99805.25;;;11.17;84.70
26112;BME280;13829;48.990;8.346;2024-03-23T06:28:35;99805.25;;;11.17;84.33
26112;BME280;13829;48.990;8.346;2024-03-23T06:31:03;99813.94;;;11.29;85.51
26112;BME280;13829;48.990;8.346;2024-03-23T06:33:29;99824.34;;;11.44;85.65
26112;BME280;13829;48.990;8.346;2024-03-23T06:35:55;99824.31;;;11.47;84.97
26112;BME280;13829;48.990;8.346;2024-03-23T06:38:21;99828.53;;;11.65;85.17
26112;BME280;13829;48.990;8.346;2024-03-23T06:40:50;99833.00;;;11.58;85.42
26112;BME280;13829;48.990;8.346;2024-03-23T06:43:18;99848.81;;;11.58;85.22
26112;BME280;13829;48.990;8.346;2024-03-23T06:45:52;99852.41;;;11.43;85.64
26112;BME280;13829;48.990;8.346;2024-03-23T06:48:19;99862.97;;;11.42;85.62
26112;BME280;13829;48.990;8.346;2024-03-23T06:50:46;99860.38;;;11.36;85.85
26112;BME280;13829;48.990;8.346;2024-03-23T06:53:12;99866.44;;;11.47;85.85
26112;BME280;13829;48.990;8.346;2024-03-23T06:55:39;99882.31;;;11.38;86.33
26112;BME280;13829;48.990;8.346;2024-03-23T06:58:07;99887.59;;;11.35;86.60
26112;BME280;13829;48.990;8.346;2024-03-23T07:00:35;99891.13;;;11.34;84.85
26112;BME280;13829;48.990;8.346;2024-03-23T07:03:01;99892.94;;;11.24;85.00
26112;BME280;13829;48.990;8.346;2024-03-23T07:05:29;99905.28;;;11.11;83.73
26112;BME280;13829;48.990;8.346;2024-03-23T07:07:55;99913.25;;;10.99;83.79
26112;BME280;13829;48.990;8.346;2024-03-23T07:10:22;99911.47;;;11.02;84.11
26112;BME280;13829;48.990;8.346;2024-03-23T07:12:48;99924.78;;;10.67;82.48
26112;BME280;13829;48.990;8.346;2024-03-23T07:15:16;99937.03;;;10.69;82.03
26112;BME280;13829;48.990;8.346;2024-03-23T07:17:42;99928.25;;;10.75;81.80
26112;BME280;13829;48.990;8.346;2024-03-23T07:20:10;99944.03;;;10.67;83.98
26112;BME280;13829;48.990;8.346;2024-03-23T07:22:37;99956.38;;;10.45;83.11
26112;BME280;13829;48.990;8.346;2024-03-23T07:25:06;99956.34;;;10.54;82.83
26112;BME280;13829;48.990;8.346;2024-03-23T07:27:32;99961.59;;;10.67;83.84
26112;BME280;13829;48.990;8.346;2024-03-23T07:29:59;99961.59;;;10.67;82.26
26112;BME280;13829;48.990;8.346;2024-03-23T07:32:28;99965.06;;;10.78;83.66
26112;BME280;13829;48.990;8.346;2024-03-23T07:34:54;99975.59;;;10.72;84.19
26112;BME280;13829;48.990;8.346;2024-03-23T07:37:20;99984.31;;;10.92;84.09
26112;BME280;13829;48.990;8.346;2024-03-23T07:39:47;99986.03;;;11.00;83.78
26112;BME280;13829;48.990;8.346;2024-03-23T07:42:14;99996.56;;;11.06;82.63
26112;BME280;13829;48.990;8.346;2024-03-23T07:44:41;99999.16;;;11.09;83.17
26112;BME280;13829;48.990;8.346;2024-03-23T07:47:07;100013.88;;;11.56;82.98
26112;BME280;13829;48.990;8.346;2024-03-23T07:49:35;100018.16;;;11.71;79.92
26112;BME280;13829;48.990;8.346;2024-03-23T07:52:02;100022.59;;;11.60;79.20
26112;BME280;13829;48.990;8.346;2024-03-23T07:54:29;100034.97;;;11.50;80.69
26112;BME280;13829;48.990;8.346;2024-03-23T07:56:55;100049.00;;;11.49;81.75
26112;BME280;13829;48.990;8.346;2024-03-23T07:59:22;100054.25;;;11.55;81.07
26112;BME280;13829;48.990;8.346;2024-03-23T08:01:48;100052.44;;;11.64;78.85
26112;BME280;13829;48.990;8.346;2024-03-23T08:04:15;100059.53;;;11.55;79.99
26112;BME280;13829;48.990;8.346;2024-03-23T08:06:42;100043.66;;;11.65;78.79
26112;BME280;13829;48.990;8.346;2024-03-23T08:09:09;100050.66;;;11.69;79.22
26112;BME280;13829;48.990;8.346;2024-03-23T08:11:36;100053.47;;;11.33;78.53
26112;BME280;13829;48.990;8.346;2024-03-23T08:14:05;100064.97;;;11.00;80.19
26112;BME280;13829;48.990;8.346;2024-03-23T08:16:31;100066.63;;;11.32;77.74
26112;BME280;13829;48.990;8.346;2024-03-23T08:18:59;100084.69;;;12.15;73.55
26112;BME280;13829;48.990;8.346;2024-03-23T08:21:25;100078.72;;;12.96;70.21
26112;BME280;13829;48.990;8.346;2024-03-23T08:23:54;100091.22;;;13.64;59.44
26112;BME280;13829;48.990;8.346;2024-03-23T08:26:20;100083.25;;;13.65;59.19
26112;BME280;13829;48.990;8.346;2024-03-23T08:28:47;100073.81;;;14.13;58.39
26112;BME280;13829;48.990;8.346;2024-03-23T08:31:14;100087.28;;;14.54;53.11
26112;BME280;13829;48.990;8.346;2024-03-23T08:33:41;100079.50;;;14.44;54.99
26112;BME280;13829;48.990;8.346;2024-03-23T08:36:10;100093.63;;;13.82;54.43
26112;BME280;13829;48.990;8.346;2024-03-23T08:38:38;100085.19;;;13.52;52.92
26112;BME280;13829;48.990;8.346;2024-03-23T08:41:07;100082.88;;;13.21;54.34
26112;BME280;13829;48.990;8.346;2024-03-23T08:43:37;100090.22;;;12.95;55.22
26112;BME280;13829;48.990;8.346;2024-03-23T08:46:07;100085.69;;;13.04;55.05
26112;BME280;13829;48.990;8.346;2024-03-23T08:48:36;100085.31;;;13.43;59.45
26112;BME280;13829;48.990;8.346;2024-03-23T08:51:03;100085.72;;;13.79;53.47
26112;BME280;13829;48.990;8.346;2024-03-23T08:53:30;100086.34;;;13.98;51.58
26112;BME280;13829;48.990;8.346;2024-03-23T08:55:58;100087.75;;;14.24;50.37
26112;BME280;13829;48.990;8.346;2024-03-23T08:58:28;100101.09;;;14.13;50.25
26112;BME280;13829;48.990;8.346;2024-03-23T09:01:02;100093.41;;;13.98;47.57
26112;BME280;13829;48.990;8.346;2024-03-23T09:03:29;100090.19;;;13.76;47.47
26112;BME280;13829;48.990;8.346;2024-03-23T09:05:55;100107.06;;;13.64;48.42
26112;BME280;13829;48.990;8.346;2024-03-23T09:08:24;100111.34;;;13.74;45.54
26112;BME280;13829;48.990;8.346;2024-03-23T09:10:51;100123.09;;;13.48;47.39
26112;BME280;13829;48.990;8.346;2024-03-23T09:13:18;100123.44;;;13.14;49.02
26112;BME280;13829;48.990;8.346;2024-03-23T09:15:50;100127.16;;;12.92;48.57
26112;BME280;13829;48.990;8.346;2024-03-23T09:18:22;100134.31;;;12.80;47.35
26112;BME280;13829;48.990;8.346;2024-03-23T09:20:48;100132.81;;;12.48;48.97
26112;BME280;13829;48.990;8.346;2024-03-23T09:23:14;100129.59;;;11.94;50.39
26112;BME280;13829;48.990;8.346;2024-03-23T09:25:40;100135.78;;;11.82;49.33
26112;BME280;13829;48.990;8.346;2024-03-23T09:28:08;100120.84;;;11.79;51.47
26112;BME280;13829;48.990;8.346;2024-03-23T09:30:34;100117.44;;;11.62;50.55
26112;BME280;13829;48.990;8.346;2024-03-23T09:33:03;100119.19;;;11.66;50.75
26112;BME280;13829;48.990;8.346;2024-03-23T09:35:29;100128.88;;;11.53;50.41
26112;BME280;13829;48.990;8.346;2024-03-23T09:37:56;100120.94;;;11.64;51.65
26112;BME280;13829;48.990;8.346;2024-03-23T09:40:23;100124.50;;;11.50;51.17
26112;BME280;13829;48.990;8.346;2024-03-23T09:42:51;100128.88;;;11.59;51.21
26112;BME280;13829;48.990;8.346;2024-03-23T09:45:21;100132.38;;;11.53;53.04
26112;BME280;13829;48.990;8.346;2024-03-23T09:47:49;100143.00;;;11.30;54.08
26112;BME280;13829;48.990;8.346;2024-03-23T09:50:18;100158.81;;;10.98;59.74
26112;BME280;13829;48.990;8.346;2024-03-23T09:52:46;100185.09;;;10.51;75.61
26112;BME280;13829;48.990;8.346;2024-03-23T09:55:12;100178.84;;;10.14;80.75
26112;BME280;13829;48.990;8.346;2024-03-23T09:57:39;100185.88;;;10.19;86.08
26112;BME280;13829;48.990;8.346;2024-03-23T10:00:07;100179.69;;;10.09;84.91
26112;BME280;13829;48.990;8.346;2024-03-23T10:02:35;100190.19;;;10.02;85.49
26112;BME280;13829;48.990;8.346;2024-03-23T10:05:01;100189.34;;;10.06;86.26
26112;BME280;13829;48.990;8.346;2024-03-23T10:07:29;100177.13;;;10.26;89.36
26112;BME280;13829;48.990;8.346;2024-03-23T10:09:55;100168.38;;;10.29;88.90
26112;BME280;13829;48.990;8.346;2024-03-23T10:12:24;100162.25;;;10.30;86.01
26112;BME280;13829;48.990;8.346;2024-03-23T10:14:50;100161.34;;;10.17;85.42
26112;BME280;13829;48.990;8.346;2024-03-23T10:17:19;100149.16;;;10.41;84.44
26112;BME280;13829;48.990;8.346;2024-03-23T10:19:46;100157.94;;;10.43;88.08
26112;BME280;13829;48.990;8.346;2024-03-23T10:22:18;100155.31;;;10.65;89.58
26112;BME280;13829;48.990;8.346;2024-03-23T10:24:46;100157.09;;;10.92;85.91
26112;BME280;13829;48.990;8.346;2024-03-23T10:27:16;100162.31;;;10.98;86.25
26112;BME280;13829;48.990;8.346;2024-03-23T10:29:42;100174.63;;;11.08;82.91
26112;BME280;13829;48.990;8.346;2024-03-23T10:32:11;100182.50;;;11.07;84.96
26112;BME280;13829;48.990;8.346;2024-03-23T10:34:37;100185.16;;;10.95;84.90
26112;BME280;13829;48.990;8.346;2024-03-23T10:37:06;100182.50;;;11.07;86.20
26112;BME280;13829;48.990;8.346;2024-03-23T10:39:34;100186.84;;;11.36;86.03
26112;BME280;13829;48.990;8.346;2024-03-23T10:42:07;100182.50;;;11.29;84.38
26112;BME280;13829;48.990;8.346;2024-03-23T10:44:34;100176.34;;;11.20;83.78
26112;BME280;13829;48.990;8.346;2024-03-23T10:47:02;100175.41;;;11.40;86.18
26112;BME280;13829;48.990;8.346;2024-03-23T10:49:30;100171.91;;;11.35;84.26
26112;BME280;13829;48.990;8.346;2024-03-23T10:51:58;100173.69;;;11.36;78.82
26112;BME280;13829;48.990;8.346;2024-03-23T10:54:25;100175.44;;;11.43;78.44
26112;BME280;13829;48.990;8.346;2024-03-23T10:57:06;100176.28;;;11.48;76.03
26112;BME280;13829;48.990;8.346;2024-03-23T10:59:36;100178.00;;;11.60;79.74
26112;BME280;13829;48.990;8.346;2024-03-23T11:02:04;100166.56;;;11.72;78.97
26112;BME280;13829;48.990;8.346;2024-03-23T11:04:35;100157.78;;;11.73;76.52
26112;BME280;13829;48.990;8.346;2024-03-23T11:07:30;100164.84;;;11.69;72.47
26112;BME280;13829;48.990;8.346;2024-03-23T11:09:58;100149.94;;;11.61;70.58
26112;BME280;13829;48.990;8.346;2024-03-23T11:12:30;100150.78;;;11.63;73.09
26112;BME280;13829;48.990;8.346;2024-03-23T11:15:01;100166.63;;;11.58;74.63
26112;BME280;13829;48.990;8.346;2024-03-23T11:17:29;100158.72;;;11.59;79.23
26112;BME280;13829;48.990;8.346;2024-03-23T11:19:57;100149.91;;;11.64;77.56
26112;BME280;13829;48.990;8.346;2024-03-23T11:22:44;100153.47;;;11.50;76.71
26112;BME280;13829;48.990;8.346;2024-03-23T11:25:17;100142.00;;;11.64;78.29
26112;BME280;13829;48.990;8.346;2024-03-23T11:27:48;100148.91;;;11.96;78.01
26112;BME280;13829;48.990;8.346;2024-03-23T11:30:17;100143.63;;;12.02;75.32
26112;BME280;13829;48.990;8.346;2024-03-23T11:32:46;100137.25;;;12.42;75.67
26112;BME280;13829;48.990;8.346;2024-03-23T11:35:28;100149.56;;;12.43;71.93
26112;BME280;13829;48.990;8.346;2024-03-23T11:38:07;100146.94;;;12.39;73.15
26112;BME280;13829;48.990;8.346;2024-03-23T11:40:35;100138.00;;;12.61;72.99
26112;BME280;13829;48.990;8.346;2024-03-23T11:43:06;100134.34;;;12.77;68.56
26112;BME280;13829;48.990;8.346;2024-03-23T11:45:37;100136.31;;;12.50;69.78
26112;BME280;13829;48.990;8.346;2024-03-23T11:48:07;100130.38;;;12.17;69.36
26112;BME280;13829;48.990;8.346;2024-03-23T11:50:35;100138.38;;;11.99;72.56
26112;BME280;13829;48.990;8.346;2024-03-23T11:53:19;100133.06;;;12.08;73.60
26112;BME280;13829;48.990;8.346;2024-03-23T11:55:48;100124.31;;;12.00;68.31
26112;BME280;13829;48.990;8.346;2024-03-23T11:58:18;100127.88;;;11.83;70.90
26112;BME280;13829;48.990;8.346;2024-03-23T12:00:51;100117.38;;;11.77;72.11
26112;BME280;13829;48.990;8.346;2024-03-23T12:03:19;100116.47;;;11.81;72.94
26112;BME280;13829;48.990;8.346;2024-03-23T12:05:49;100111.16;;;11.97;74.22
26112;BME280;13829;48.990;8.346;2024-03-23T12:08:21;100111.97;;;12.08;75.06
26112;BME280;13829;48.990;8.346;2024-03-23T12:10:50;100106.59;;;12.27;75.13
26112;BME280;13829;48.990;8.346;2024-03-23T12:13:20;100097.53;;;12.59;71.41
26112;BME280;13829;48.990;8.346;2024-03-23T12:15:49;100094.00;;;12.64;68.84
26112;BME280;13829;48.990;8.346;2024-03-23T12:18:17;100085.13;;;12.71;57.76
26112;BME280;13829;48.990;8.346;2024-03-23T12:20:43;100072.63;;;12.94;59.00
26112;BME280;13829;48.990;8.346;2024-03-23T12:23:12;100070.63;;;13.14;54.51
26112;BME280;13829;48.990;8.346;2024-03-23T12:25:39;100071.34;;;13.27;52.67
26112;BME280;13829;48.990;8.346;2024-03-23T12:28:07;100079.31;;;13.26;50.50
26112;BME280;13829;48.990;8.346;2024-03-23T12:30:38;100088.41;;;12.97;50.25
26112;BME280;13829;48.990;8.346;2024-03-23T12:33:06;100089.34;;;12.91;48.45
26112;BME280;13829;48.990;8.346;2024-03-23T12:35:32;100089.38;;;12.88;59.92
26112;BME280;13829;48.990;8.346;2024-03-23T12:38:00;100068.28;;;12.86;64.89
26112;BME280;13829;48.990;8.346;2024-03-23T12:40:26;100057.53;;;13.05;59.74
26112;BME280;13829;48.990;8.346;2024-03-23T12:42:53;100063.75;;;12.98;60.08
26112;BME280;13829;48.990;8.346;2024-03-23T12:45:19;100070.13;;;12.78;61.20
26112;BME280;13829;48.990;8.346;2024-03-23T12:47:47;100106.47;;;12.42;51.34
26112;BME280;13829;48.990;8.346;2024-03-23T12:50:14;100105.00;;;11.96;52.88
26112;BME280;13829;48.990;8.346;2024-03-23T12:52:41;100115.72;;;11.54;55.90
26112;BME280;13829;48.990;8.346;2024-03-23T12:55:08;100136.00;;;11.04;59.39
26112;BME280;13829;48.990;8.346;2024-03-23T12:57:35;100108.78;;;10.26;72.28
26112;BME280;13829;48.990;8.346;2024-03-23T13:00:02;100145.44;;;9.77;77.34
26112;BME280;13829;48.990;8.346;2024-03-23T13:02:29;100144.47;;;9.52;79.34
26112;BME280;13829;48.990;8.346;2024-03-23T13:04:57;100141.84;;;9.50;82.68
26112;BME280;13829;48.990;8.346;2024-03-23T13:07:24;100153.22;;;9.57;77.26
26112;BME280;13829;48.990;8.346;2024-03-23T13:09:51;100135.81;;;9.77;80.37
26112;BME280;13829;48.990;8.346;2024-03-23T13:12:18;100136.78;;;10.03;76.97
26112;BME280;13829;48.990;8.346;2024-03-23T13:14:45;100132.44;;;10.22;73.39
26112;BME280;13829;48.990;8.346;2024-03-23T13:17:12;100131.63;;;10.37;74.19
26112;BME280;13829;48.990;8.346;2024-03-23T13:19:38;100120.19;;;10.35;71.04
26112;BME280;13829;48.990;8.346;2024-03-23T13:22:06;100107.94;;;10.40;70.86
26112;BME280;13829;48.990;8.346;2024-03-23T13:24:32;100101.84;;;10.36;67.71
26112;BME280;13829;48.990;8.346;2024-03-23T13:26:59;100105.34;;;10.65;66.63
26112;BME280;13829;48.990;8.346;2024-03-23T13:29:25;100118.47;;;10.88;66.21
26112;BME280;13829;48.990;8.346;2024-03-23T13:31:52;100134.28;;;10.55;64.08
26112;BME280;13829;48.990;8.346;2024-03-23T13:34:19;100117.56;;;10.32;66.43
26112;BME280;13829;48.990;8.346;2024-03-23T13:36:47;100128.09;;;10.28;66.36
26112;BME280;13829;48.990;8.346;2024-03-23T13:39:15;100138.63;;;10.41;66.63
26112;BME280;13829;48.990;8.346;2024-03-23T13:41:44;100129.00;;;10.43;68.87
26112;BME280;13829;48.990;8.346;2024-03-23T13:44:11;100114.97;;;10.81;69.56
26112;BME280;13829;48.990;8.346;2024-03-23T13:46:39;100115.81;;;11.14;67.38
26112;BME280;13829;48.990;8.346;2024-03-23T13:49:05;100113.16;;;11.28;66.78